sensor_id;sensor_type;location;lat;lon;timestamp;P1;durP1;ratioP1;P2;durP2;ratioP2
6177;SDS011;3122;48.208;11.174;2022-09-16T00:01:46;9.57;;;8.57;;
6177;SDS011;3122;48.208;11.174;2022-09-16T00:06:47;11.10;;;9.40;;
6177;SDS011;3122;48.208;11.174;2022-09-16T00:11:47;10.30;;;8.70;;
6177;SDS011;3122;48.208;11.174;2022-09-16T00:16:48;8.93;;;7.97;;
6177;SDS011;3122;48.208;11.174;2022-09-16T00:21:48;9.43;;;8.27;;
6177;SDS011;3122;48.208;11.174;2022-09-16T00:26:49;10.20;;;8.07;;
6177;SDS011;3122;48.208;11.174;2022-09-16T00:31:50;8.60;;;7.80;;
6177;SDS011;3122;48.208;11.174;2022-09-16T00:36:50;10.93;;;8.10;;
6177;SDS011;3122;48.208;11.174;2022-09-16T00:41:51;11.73;;;9.73;;
6177;SDS011;3122;48.208;11.174;2022-09-16T00:46:52;9.87;;;8.70;;
6177;SDS011;3122;48.208;11.174;2022-09-16T00:51:55;8.73;;;7.83;;
6177;SDS011;3122;48.208;11.174;2022-09-16T00:56:59;10.20;;;8.40;;
6177;SDS011;3122;48.208;11.174;2022-09-16T01:02:02;11.70;;;8.70;;
6177;SDS011;3122;48.208;11.174;2022-09-16T01:07:07;12.93;;;9.20;;
6177;SDS011;3122;48.208;11.174;2022-09-16T01:12:07;10.70;;;8.73;;
6177;SDS011;3122;48.208;11.174;2022-09-16T01:33:00;9.60;;;8.60;;
6177;SDS011;3122;48.208;11.174;2022-09-16T01:43:17;10.63;;;8.57;;
6177;SDS011;3122;48.208;11.174;2022-09-16T01:48:40;11.90;;;8.10;;
6177;SDS011;3122;48.208;11.174;2022-09-16T01:54:11;9.30;;;8.00;;
6177;SDS011;3122;48.208;11.174;2022-09-16T01:59:40;13.17;;;8.07;;
6177;SDS011;3122;48.208;11.174;2022-09-16T02:04:49;11.10;;;8.47;;
6177;SDS011;3122;48.208;11.174;2022-09-16T02:09:55;13.63;;;8.97;;
6177;SDS011;3122;48.208;11.174;2022-09-16T02:15:02;12.10;;;9.70;;
6177;SDS011;3122;48.208;11.174;2022-09-16T02:20:08;12.00;;;8.67;;
6177;SDS011;3122;48.208;11.174;2022-09-16T02:25:17;12.50;;;8.90;;
6177;SDS011;3122;48.208;11.174;2022-09-16T02:30:19;13.27;;;9.93;;
6177;SDS011;3122;48.208;11.174;2022-09-16T02:35:21;11.73;;;9.50;;
6177;SDS011;3122;48.208;11.174;2022-09-16T02:40:27;14.50;;;10.27;;
6177;SDS011;3122;48.208;11.174;2022-09-16T02:45:36;13.13;;;9.90;;
6177;SDS011;3122;48.208;11.174;2022-09-16T02:50:46;14.27;;;10.10;;
6177;SDS011;3122;48.208;11.174;2022-09-16T03:01:40;11.63;;;9.83;;
6177;SDS011;3122;48.208;11.174;2022-09-16T03:06:43;13.33;;;10.77;;
6177;SDS011;3122;48.208;11.174;2022-09-16T03:27:30;12.90;;;11.00;;
6177;SDS011;3122;48.208;11.174;2022-09-16T03:32:42;15.20;;;11.43;;
6177;SDS011;3122;48.208;11.174;2022-09-16T03:37:48;13.60;;;10.80;;
6177;SDS011;3122;48.208;11.174;2022-09-16T03:42:49;15.40;;;10.73;;
6177;SDS011;3122;48.208;11.174;2022-09-16T03:47:51;14.53;;;11.57;;
6177;SDS011;3122;48.208;11.174;2022-09-16T03:52:52;13.80;;;11.70;;
6177;SDS011;3122;48.208;11.174;2022-09-16T03:57:53;13.23;;;10.80;;
6177;SDS011;3122;48.208;11.174;2022-09-16T04:02:54;18.27;;;11.80;;
6177;SDS011;3122;48.208;11.174;2022-09-16T04:07:54;14.77;;;11.70;;
6177;SDS011;3122;48.208;11.174;2022-09-16T04:12:56;11.33;;;9.90;;
6177;SDS011;3122;48.208;11.174;2022-09-16T04:17:58;20.07;;;11.00;;
6177;SDS011;3122;48.208;11.174;2022-09-16T04:22:59;15.97;;;11.03;;
6177;SDS011;3122;48.208;11.174;2022-09-16T04:27:59;17.67;;;10.80;;
6177;SDS011;3122;48.208;11.174;2022-09-16T04:33:00;15.70;;;10.60;;
6177;SDS011;3122;48.208;11.174;2022-09-16T04:38:01;15.23;;;11.40;;
6177;SDS011;3122;48.208;11.174;2022-09-16T04:43:02;14.47;;;11.00;;
6177;SDS011;3122;48.208;11.174;2022-09-16T04:48:02;21.03;;;11.50;;
6177;SDS011;3122;48.208;11.174;2022-09-16T04:53:03;15.30;;;10.30;;
6177;SDS011;3122;48.208;11.174;2022-09-16T04:58:03;16.93;;;11.17;;
6177;SDS011;3122;48.208;11.174;2022-09-16T05:03:04;14.57;;;12.03;;
6177;SDS011;3122;48.208;11.174;2022-09-16T05:08:04;13.90;;;12.20;;
6177;SDS011;3122;48.208;11.174;2022-09-16T05:13:05;14.10;;;12.10;;
6177;SDS011;3122;48.208;11.174;2022-09-16T05:18:06;13.83;;;10.87;;
6177;SDS011;3122;48.208;11.174;2022-09-16T05:23:06;15.43;;;11.50;;
6177;SDS011;3122;48.208;11.174;2022-09-16T05:28:07;15.37;;;12.00;;
6177;SDS011;3122;48.208;11.174;2022-09-16T05:33:08;14.40;;;12.30;;
6177;SDS011;3122;48.208;11.174;2022-09-16T05:38:08;14.83;;;10.90;;
6177;SDS011;3122;48.208;11.174;2022-09-16T05:43:09;15.20;;;11.13;;
6177;SDS011;3122;48.208;11.174;2022-09-16T05:48:10;16.10;;;11.50;;
6177;SDS011;3122;48.208;11.174;2022-09-16T05:53:10;13.40;;;11.70;;
6177;SDS011;3122;48.208;11.174;2022-09-16T05:58:11;14.53;;;11.83;;
6177;SDS011;3122;48.208;11.174;2022-09-16T06:03:11;15.30;;;10.73;;
6177;SDS011;3122;48.208;11.174;2022-09-16T06:08:12;14.93;;;11.10;;
6177;SDS011;3122;48.208;11.174;2022-09-16T06:13:13;19.60;;;10.90;;
6177;SDS011;3122;48.208;11.174;2022-09-16T06:18:13;14.87;;;11.03;;
6177;SDS011;3122;48.208;11.174;2022-09-16T06:23:15;18.23;;;12.17;;
6177;SDS011;3122;48.208;11.174;2022-09-16T06:28:16;15.90;;;11.70;;
6177;SDS011;3122;48.208;11.174;2022-09-16T06:33:17;17.20;;;12.20;;
6177;SDS011;3122;48.208;11.174;2022-09-16T06:38:18;15.70;;;11.10;;
6177;SDS011;3122;48.208;11.174;2022-09-16T06:43:18;15.00;;;11.60;;
6177;SDS011;3122;48.208;11.174;2022-09-16T06:48:19;19.80;;;11.73;;
6177;SDS011;3122;48.208;11.174;2022-09-16T06:53:19;16.27;;;11.53;;
6177;SDS011;3122;48.208;11.174;2022-09-16T06:58:21;17.73;;;11.20;;
6177;SDS011;3122;48.208;11.174;2022-09-16T07:03:22;14.00;;;11.43;;
6177;SDS011;3122;48.208;11.174;2022-09-16T07:08:22;15.63;;;12.70;;
6177;SDS011;3122;48.208;11.174;2022-09-16T07:13:24;14.80;;;11.43;;
6177;SDS011;3122;48.208;11.174;2022-09-16T07:18:24;13.17;;;11.20;;
6177;SDS011;3122;48.208;11.174;2022-09-16T07:23:25;14.73;;;11.37;;
6177;SDS011;3122;48.208;11.174;2022-09-16T07:28:27;18.10;;;12.30;;
6177;SDS011;3122;48.208;11.174;2022-09-16T07:33:31;13.97;;;11.20;;
6177;SDS011;3122;48.208;11.174;2022-09-16T07:38:36;13.90;;;11.80;;
6177;SDS011;3122;48.208;11.174;2022-09-16T07:43:37;14.03;;;11.70;;
6177;SDS011;3122;48.208;11.174;2022-09-16T07:48:39;19.23;;;13.07;;
6177;SDS011;3122;48.208;11.174;2022-09-16T07:53:40;16.97;;;12.97;;
6177;SDS011;3122;48.208;11.174;2022-09-16T07:58:41;18.77;;;12.17;;
6177;SDS011;3122;48.208;11.174;2022-09-16T08:03:43;18.27;;;12.07;;
6177;SDS011;3122;48.208;11.174;2022-09-16T08:08:45;15.73;;;12.73;;
6177;SDS011;3122;48.208;11.174;2022-09-16T08:13:46;17.00;;;12.20;;
6177;SDS011;3122;48.208;11.174;2022-09-16T08:18:48;17.40;;;11.60;;
6177;SDS011;3122;48.208;11.174;2022-09-16T08:23:50;17.23;;;12.10;;
6177;SDS011;3122;48.208;11.174;2022-09-16T08:28:51;14.70;;;11.47;;
6177;SDS011;3122;48.208;11.174;2022-09-16T08:33:52;16.50;;;12.57;;
6177;SDS011;3122;48.208;11.174;2022-09-16T08:38:53;20.20;;;12.87;;
6177;SDS011;3122;48.208;11.174;2022-09-16T08:54:30;13.93;;;10.27;;
6177;SDS011;3122;48.208;11.174;2022-09-16T08:59:35;15.37;;;11.20;;
6177;SDS011;3122;48.208;11.174;2022-09-16T09:04:39;15.10;;;11.43;;
6177;SDS011;3122;48.208;11.174;2022-09-16T09:31:01;12.37;;;10.30;;
6177;SDS011;3122;48.208;11.174;2022-09-16T09:46:43;17.00;;;11.63;;
6177;SDS011;3122;48.208;11.174;2022-09-16T09:51:48;15.07;;;12.37;;
6177;SDS011;3122;48.208;11.174;2022-09-16T09:57:46;16.87;;;12.50;;
6177;SDS011;3122;48.208;11.174;2022-09-16T10:02:38;18.27;;;12.47;;
6177;SDS011;3122;48.208;11.174;2022-09-16T10:07:40;16.57;;;11.50;;
6177;SDS011;3122;48.208;11.174;2022-09-16T10:12:41;14.20;;;10.53;;
6177;SDS011;3122;48.208;11.174;2022-09-16T10:17:46;8.33;;;6.80;;
6177;SDS011;3122;48.208;11.174;2022-09-16T10:22:56;9.67;;;7.00;;
6177;SDS011;3122;48.208;11.174;2022-09-16T10:28:01;10.97;;;7.27;;
6177;SDS011;3122;48.208;11.174;2022-09-16T10:33:04;9.80;;;6.90;;
6177;SDS011;3122;48.208;11.174;2022-09-16T10:43:12;9.20;;;7.50;;
6177;SDS011;3122;48.208;11.174;2022-09-16T10:48:15;9.17;;;7.67;;
6177;SDS011;3122;48.208;11.174;2022-09-16T10:53:20;7.10;;;6.23;;
6177;SDS011;3122;48.208;11.174;2022-09-16T10:58:21;6.00;;;5.07;;
6177;SDS011;3122;48.208;11.174;2022-09-16T11:18:47;6.63;;;4.93;;
6177;SDS011;3122;48.208;11.174;2022-09-16T11:40:11;9.30;;;5.80;;
6177;SDS011;3122;48.208;11.174;2022-09-16T11:45:47;8.07;;;6.80;;
6177;SDS011;3122;48.208;11.174;2022-09-16T11:56:13;7.13;;;4.53;;
6177;SDS011;3122;48.208;11.174;2022-09-16T12:06:29;6.07;;;4.90;;
6177;SDS011;3122;48.208;11.174;2022-09-16T12:11:39;5.57;;;4.53;;
6177;SDS011;3122;48.208;11.174;2022-09-16T12:16:49;5.87;;;5.27;;
6177;SDS011;3122;48.208;11.174;2022-09-16T12:21:55;5.60;;;4.93;;
6177;SDS011;3122;48.208;11.174;2022-09-16T12:32:36;3.93;;;3.63;;
6177;SDS011;3122;48.208;11.174;2022-09-16T12:37:48;5.10;;;3.80;;
6177;SDS011;3122;48.208;11.174;2022-09-16T12:43:00;5.60;;;4.43;;
6177;SDS011;3122;48.208;11.174;2022-09-16T13:04:16;5.30;;;4.60;;
6177;SDS011;3122;48.208;11.174;2022-09-16T13:09:30;5.27;;;4.77;;
6177;SDS011;3122;48.208;11.174;2022-09-16T13:14:42;4.03;;;3.73;;
6177;SDS011;3122;48.208;11.174;2022-09-16T13:19:49;5.97;;;4.23;;
6177;SDS011;3122;48.208;11.174;2022-09-16T13:30:30;4.83;;;4.40;;
6177;SDS011;3122;48.208;11.174;2022-09-16T13:40:35;5.20;;;4.60;;
6177;SDS011;3122;48.208;11.174;2022-09-16T13:50:51;6.67;;;6.00;;
6177;SDS011;3122;48.208;11.174;2022-09-16T13:56:01;6.13;;;5.53;;
6177;SDS011;3122;48.208;11.174;2022-09-16T14:01:26;6.13;;;5.23;;
6177;SDS011;3122;48.208;11.174;2022-09-16T14:12:14;7.63;;;6.60;;
6177;SDS011;3122;48.208;11.174;2022-09-16T14:17:40;6.47;;;5.37;;
6177;SDS011;3122;48.208;11.174;2022-09-16T14:22:44;6.60;;;5.90;;
6177;SDS011;3122;48.208;11.174;2022-09-16T14:27:45;6.27;;;5.67;;
6177;SDS011;3122;48.208;11.174;2022-09-16T14:32:46;8.93;;;6.50;;
6177;SDS011;3122;48.208;11.174;2022-09-16T14:37:52;9.23;;;6.23;;
6177;SDS011;3122;48.208;11.174;2022-09-16T14:43:04;11.70;;;8.40;;
6177;SDS011;3122;48.208;11.174;2022-09-16T14:48:07;15.13;;;8.97;;
6177;SDS011;3122;48.208;11.174;2022-09-16T14:58:30;7.90;;;6.60;;
6177;SDS011;3122;48.208;11.174;2022-09-16T15:08:45;7.73;;;6.50;;
6177;SDS011;3122;48.208;11.174;2022-09-16T15:13:53;7.03;;;6.30;;
6177;SDS011;3122;48.208;11.174;2022-09-16T15:23:57;7.40;;;6.60;;
6177;SDS011;3122;48.208;11.174;2022-09-16T15:29:01;9.67;;;8.63;;
6177;SDS011;3122;48.208;11.174;2022-09-16T15:34:25;7.50;;;6.70;;
6177;SDS011;3122;48.208;11.174;2022-09-16T15:39:26;9.20;;;7.47;;
6177;SDS011;3122;48.208;11.174;2022-09-16T15:44:30;6.50;;;5.90;;
6177;SDS011;3122;48.208;11.174;2022-09-16T15:49:32;8.10;;;6.27;;
6177;SDS011;3122;48.208;11.174;2022-09-16T15:54:44;6.93;;;6.20;;
6177;SDS011;3122;48.208;11.174;2022-09-16T16:00:08;8.50;;;6.23;;
6177;SDS011;3122;48.208;11.174;2022-09-16T16:05:15;8.27;;;7.47;;
6177;SDS011;3122;48.208;11.174;2022-09-16T16:15:24;11.27;;;7.17;;
6177;SDS011;3122;48.208;11.174;2022-09-16T16:20:27;9.30;;;7.80;;
6177;SDS011;3122;48.208;11.174;2022-09-16T16:25:28;10.93;;;7.73;;
6177;SDS011;3122;48.208;11.174;2022-09-16T16:30:29;9.20;;;7.63;;
6177;SDS011;3122;48.208;11.174;2022-09-16T16:35:30;9.00;;;7.90;;
6177;SDS011;3122;48.208;11.174;2022-09-16T16:40:30;8.53;;;6.40;;
6177;SDS011;3122;48.208;11.174;2022-09-16T16:45:31;7.57;;;6.80;;
6177;SDS011;3122;48.208;11.174;2022-09-16T16:50:31;8.40;;;7.27;;
6177;SDS011;3122;48.208;11.174;2022-09-16T16:55:32;9.47;;;7.47;;
6177;SDS011;3122;48.208;11.174;2022-09-16T17:00:33;8.23;;;7.37;;
6177;SDS011;3122;48.208;11.174;2022-09-16T17:05:33;10.43;;;8.37;;
6177;SDS011;3122;48.208;11.174;2022-09-16T17:10:34;12.30;;;9.47;;
6177;SDS011;3122;48.208;11.174;2022-09-16T17:15:34;9.30;;;8.27;;
6177;SDS011;3122;48.208;11.174;2022-09-16T17:20:35;9.83;;;7.40;;
6177;SDS011;3122;48.208;11.174;2022-09-16T17:25:35;8.07;;;6.70;;
6177;SDS011;3122;48.208;11.174;2022-09-16T17:30:36;9.53;;;7.33;;
6177;SDS011;3122;48.208;11.174;2022-09-16T17:35:42;9.87;;;7.73;;
6177;SDS011;3122;48.208;11.174;2022-09-16T17:40:42;9.20;;;7.60;;
6177;SDS011;3122;48.208;11.174;2022-09-16T17:45:46;9.87;;;8.40;;
6177;SDS011;3122;48.208;11.174;2022-09-16T17:50:51;9.40;;;7.43;;
6177;SDS011;3122;48.208;11.174;2022-09-16T17:56:00;8.90;;;8.00;;
6177;SDS011;3122;48.208;11.174;2022-09-16T18:01:02;9.83;;;8.77;;
6177;SDS011;3122;48.208;11.174;2022-09-16T18:06:19;9.50;;;8.50;;
6177;SDS011;3122;48.208;11.174;2022-09-16T18:11:25;13.23;;;11.10;;
6177;SDS011;3122;48.208;11.174;2022-09-16T18:16:26;11.37;;;8.47;;
6177;SDS011;3122;48.208;11.174;2022-09-16T18:21:28;9.97;;;8.70;;
6177;SDS011;3122;48.208;11.174;2022-09-16T18:26:30;9.90;;;8.70;;
6177;SDS011;3122;48.208;11.174;2022-09-16T18:31:31;14.00;;;8.30;;
6177;SDS011;3122;48.208;11.174;2022-09-16T18:36:32;10.27;;;8.40;;
6177;SDS011;3122;48.208;11.174;2022-09-16T18:41:35;9.70;;;8.70;;
6177;SDS011;3122;48.208;11.174;2022-09-16T18:46:37;10.63;;;8.17;;
6177;SDS011;3122;48.208;11.174;2022-09-16T18:51:39;10.93;;;8.30;;
6177;SDS011;3122;48.208;11.174;2022-09-16T18:56:41;10.83;;;8.40;;
6177;SDS011;3122;48.208;11.174;2022-09-16T19:01:43;8.43;;;7.23;;
6177;SDS011;3122;48.208;11.174;2022-09-16T19:06:48;9.43;;;8.43;;
6177;SDS011;3122;48.208;11.174;2022-09-16T19:11:50;11.00;;;8.43;;
6177;SDS011;3122;48.208;11.174;2022-09-16T19:16:52;10.97;;;8.83;;
6177;SDS011;3122;48.208;11.174;2022-09-16T19:21:53;10.03;;;8.47;;
6177;SDS011;3122;48.208;11.174;2022-09-16T19:26:54;11.43;;;8.60;;
6177;SDS011;3122;48.208;11.174;2022-09-16T19:31:54;11.00;;;8.67;;
6177;SDS011;3122;48.208;11.174;2022-09-16T19:36:56;8.83;;;7.93;;
6177;SDS011;3122;48.208;11.174;2022-09-16T19:41:57;10.00;;;8.53;;
6177;SDS011;3122;48.208;11.174;2022-09-16T19:47:02;12.93;;;8.80;;
6177;SDS011;3122;48.208;11.174;2022-09-16T19:52:02;11.73;;;8.67;;
6177;SDS011;3122;48.208;11.174;2022-09-16T19:57:03;14.40;;;9.30;;
6177;SDS011;3122;48.208;11.174;2022-09-16T20:02:03;18.27;;;9.60;;
6177;SDS011;3122;48.208;11.174;2022-09-16T20:07:05;11.13;;;8.37;;
6177;SDS011;3122;48.208;11.174;2022-09-16T20:12:12;10.90;;;9.10;;
6177;SDS011;3122;48.208;11.174;2022-09-16T20:17:13;11.57;;;9.07;;
6177;SDS011;3122;48.208;11.174;2022-09-16T20:22:13;14.83;;;9.60;;
6177;SDS011;3122;48.208;11.174;2022-09-16T20:27:14;10.40;;;9.30;;
6177;SDS011;3122;48.208;11.174;2022-09-16T20:32:15;11.73;;;8.97;;
6177;SDS011;3122;48.208;11.174;2022-09-16T20:37:16;10.97;;;8.53;;
6177;SDS011;3122;48.208;11.174;2022-09-16T20:42:16;10.80;;;7.77;;
6177;SDS011;3122;48.208;11.174;2022-09-16T20:47:17;12.00;;;8.67;;
6177;SDS011;3122;48.208;11.174;2022-09-16T20:52:18;14.40;;;9.10;;
6177;SDS011;3122;48.208;11.174;2022-09-16T20:57:18;9.30;;;7.80;;
6177;SDS011;3122;48.208;11.174;2022-09-16T21:02:19;11.33;;;8.63;;
6177;SDS011;3122;48.208;11.174;2022-09-16T21:07:21;10.57;;;8.77;;
6177;SDS011;3122;48.208;11.174;2022-09-16T21:12:22;9.70;;;7.70;;
6177;SDS011;3122;48.208;11.174;2022-09-16T21:17:22;15.13;;;7.20;;
6177;SDS011;3122;48.208;11.174;2022-09-16T21:22:23;7.87;;;6.97;;
6177;SDS011;3122;48.208;11.174;2022-09-16T21:27:23;9.63;;;7.00;;
6177;SDS011;3122;48.208;11.174;2022-09-16T21:32:24;8.20;;;6.30;;
6177;SDS011;3122;48.208;11.174;2022-09-16T21:37:24;7.87;;;7.00;;
6177;SDS011;3122;48.208;11.174;2022-09-16T21:42:25;7.80;;;6.63;;
6177;SDS011;3122;48.208;11.174;2022-09-16T21:47:25;8.77;;;7.07;;
6177;SDS011;3122;48.208;11.174;2022-09-16T21:52:26;8.63;;;6.83;;
6177;SDS011;3122;48.208;11.174;2022-09-16T21:57:26;8.30;;;7.10;;
6177;SDS011;3122;48.208;11.174;2022-09-16T22:02:28;8.63;;;6.67;;
6177;SDS011;3122;48.208;11.174;2022-09-16T22:07:29;7.40;;;6.13;;
6177;SDS011;3122;48.208;11.174;2022-09-16T22:12:29;11.13;;;6.20;;
6177;SDS011;3122;48.208;11.174;2022-09-16T22:17:30;8.10;;;5.43;;
6177;SDS011;3122;48.208;11.174;2022-09-16T22:22:31;7.43;;;5.90;;
6177;SDS011;3122;48.208;11.174;2022-09-16T22:27:31;6.47;;;5.43;;
6177;SDS011;3122;48.208;11.174;2022-09-16T22:32:32;9.00;;;6.67;;
6177;SDS011;3122;48.208;11.174;2022-09-16T22:37:32;6.90;;;6.20;;
6177;SDS011;3122;48.208;11.174;2022-09-16T22:42:33;6.73;;;6.03;;
6177;SDS011;3122;48.208;11.174;2022-09-16T22:47:33;7.33;;;6.10;;
6177;SDS011;3122;48.208;11.174;2022-09-16T22:52:34;7.10;;;6.27;;
6177;SDS011;3122;48.208;11.174;2022-09-16T22:57:35;18.33;;;6.67;;
6177;SDS011;3122;48.208;11.174;2022-09-16T23:02:35;8.50;;;7.00;;
6177;SDS011;3122;48.208;11.174;2022-09-16T23:07:36;8.03;;;6.70;;
6177;SDS011;3122;48.208;11.174;2022-09-16T23:12:36;8.13;;;6.07;;
6177;SDS011;3122;48.208;11.174;2022-09-16T23:17:39;9.40;;;6.10;;
6177;SDS011;3122;48.208;11.174;2022-09-16T23:22:40;7.47;;;6.40;;
6177;SDS011;3122;48.208;11.174;2022-09-16T23:27:40;6.03;;;5.43;;
6177;SDS011;3122;48.208;11.174;2022-09-16T23:32:41;7.07;;;5.57;;
6177;SDS011;3122;48.208;11.174;2022-09-16T23:37:41;6.17;;;5.30;;
6177;SDS011;3122;48.208;11.174;2022-09-16T23:42:42;7.57;;;5.90;;
6177;SDS011;3122;48.208;11.174;2022-09-16T23:47:42;5.20;;;4.70;;
6177;SDS011;3122;48.208;11.174;2022-09-16T23:52:43;6.60;;;4.80;;
6177;SDS011;3122;48.208;11.174;2022-09-16T23:57:43;4.70;;;4.30;;
